Time;durP1;ratioP1;P1;durP2;ratioP2;P2;SDS_P1;SDS_P2;PMS_P1;PMS_P2;Temp;Humidity;BMP_temperature;BMP_pressure;BME280_temperature;BME280_humidity;BME280_pressure;Samples;Min_cycle;Max_cycle;Signal;HPM_P1;HPM_P2
2023/04/21 00:01:11;;;;;;;33.53;19.10;;;9.10;99.90;;;;;;5054335;28;20058;-62
2023/04/21 00:03:37;;;;;;;30.65;19.55;;;9.10;99.90;;;;;;5072345;28;20093;-62
2023/04/21 00:06:06;;;;;;;27.90;16.23;;;9.10;99.90;;;;;;5072359;28;20440;-62
2023/04/21 00:08:33;;;;;;;35.10;18.77;;;9.10;99.90;;;;;;5071868;28;20047;-62
2023/04/21 00:10:58;;;;;;;30.05;17.88;;;9.10;99.90;;;;;;5071345;28;20048;-62
2023/04/21 00:13:24;;;;;;;29.35;17.23;;;9.10;99.90;;;;;;5071760;28;20081;-62
2023/04/21 00:15:50;;;;;;;29.83;18.45;;;9.10;99.90;;;;;;5054195;28;20098;-62
2023/04/21 00:18:16;;;;;;;32.08;18.30;;;9.10;99.90;;;;;;5072123;28;20538;-62
2023/04/21 00:20:43;;;;;;;30.23;16.10;;;9.10;99.90;;;;;;5071927;28;20032;-62
2023/04/21 00:23:10;;;;;;;27.27;14.02;;;9.10;99.90;;;;;;5072046;28;20051;-62
2023/04/21 00:25:35;;;;;;;28.15;16.88;;;9.10;99.90;;;;;;5054315;28;20071;-62
2023/04/21 00:28:01;;;;;;;31.27;17.50;;;9.10;99.90;;;;;;5053891;28;20076;-62
2023/04/21 00:30:27;;;;;;;26.23;15.18;;;9.10;99.90;;;;;;5071963;28;20083;-62
2023/04/21 00:32:52;;;;;;;31.60;17.75;;;9.10;99.90;;;;;;5071668;28;20036;-62
2023/04/21 00:35:18;;;;;;;29.85;18.10;;;9.00;99.90;;;;;;5071534;28;20037;-62
2023/04/21 00:37:43;;;;;;;28.52;17.77;;;9.10;99.90;;;;;;5071617;28;20024;-62
2023/04/21 00:40:10;;;;;;;25.55;15.20;;;9.10;99.90;;;;;;5071685;28;20044;-62
2023/04/21 00:42:35;;;;;;;31.30;17.20;;;9.00;99.90;;;;;;5052947;28;20062;-62
2023/04/21 00:45:02;;;;;;;27.33;17.33;;;9.00;99.90;;;;;;5071504;28;20041;-62
2023/04/21 00:47:27;;;;;;;26.80;15.13;;;9.10;99.90;;;;;;5053424;28;20048;-62
2023/04/21 00:49:53;;;;;;;26.67;15.95;;;9.10;99.90;;;;;;5072048;28;20089;-62
2023/04/21 00:52:19;;;;;;;26.92;14.05;;;9.10;99.90;;;;;;5072957;28;20040;-62
2023/04/21 00:54:45;;;;;;;29.67;15.13;;;9.00;99.90;;;;;;5075965;28;20032;-62
2023/04/21 00:57:11;;;;;;;24.65;15.65;;;9.10;99.90;;;;;;5057690;28;20648;-62
2023/04/21 00:59:36;;;;;;;21.00;12.75;;;9.10;99.90;;;;;;5075709;28;20062;-63
2023/04/21 01:02:03;;;;;;;27.42;15.63;;;9.10;99.90;;;;;;5075525;28;20079;-63
2023/04/21 01:04:34;;;;;;;29.65;15.48;;;9.10;99.90;;;;;;5075728;28;20119;-63
2023/04/21 01:07:00;;;;;;;;;;;9.10;99.90;;;;;;5076119;28;20032;-62
2023/04/21 01:09:26;;;;;;;23.50;13.80;;;9.10;99.90;;;;;;5075318;28;19928;-63
2023/04/21 01:12:03;;;;;;;27.20;16.00;;;9.10;99.90;;;;;;5075107;28;20036;-63
2023/04/21 01:14:29;;;;;;;26.13;14.68;;;9.10;99.90;;;;;;5075631;28;20041;-63
2023/04/21 01:16:56;;;;;;;23.67;14.68;;;9.00;99.90;;;;;;5074778;28;20702;-62
2023/04/21 01:19:23;;;;;;;27.02;15.60;;;9.10;99.90;;;;;;5075245;28;20120;-63
2023/04/21 01:21:50;;;;;;;27.10;14.82;;;9.10;99.90;;;;;;5074953;28;20041;-63
2023/04/21 01:24:16;;;;;;;26.45;13.88;;;9.10;99.90;;;;;;5074918;28;20037;-63
2023/04/21 01:26:43;;;;;;;21.83;13.40;;;9.10;99.90;;;;;;5074904;28;20442;-63
2023/04/21 01:29:09;;;;;;;21.50;12.98;;;9.10;99.90;;;;;;5074644;28;20551;-63
2023/04/21 01:31:34;;;;;;;25.83;12.95;;;9.20;99.90;;;;;;5074932;28;20033;-63
2023/04/21 01:34:03;;;;;;;21.88;13.80;;;9.10;99.90;;;;;;5056500;28;20106;-63
2023/04/21 01:36:28;;;;;;;22.23;13.20;;;9.10;99.90;;;;;;5074956;28;20090;-63
2023/04/21 01:38:54;;;;;;;23.48;13.73;;;9.10;99.90;;;;;;5056548;28;20040;-63
2023/04/21 01:41:20;;;;;;;24.08;14.52;;;9.10;99.90;;;;;;5074418;28;20097;-63
2023/04/21 01:43:45;;;;;;;21.48;12.88;;;9.10;99.90;;;;;;5056744;28;20048;-63
2023/04/21 01:46:11;;;;;;;20.90;13.60;;;9.10;99.90;;;;;;5074923;28;20047;-63
2023/04/21 01:48:37;;;;;;;22.40;14.68;;;9.10;99.90;;;;;;5074735;28;20095;-63
2023/04/21 01:51:02;;;;;;;23.40;14.30;;;9.10;99.90;;;;;;5073892;28;20072;-63
2023/04/21 01:53:30;;;;;;;22.63;13.02;;;9.10;99.90;;;;;;5050282;22;20056;-65
2023/04/21 01:55:57;;;;;;;20.70;12.68;;;9.20;99.90;;;;;;5083769;28;20046;-65
2023/04/21 01:58:22;;;;;;;21.50;13.23;;;9.10;99.90;;;;;;5086020;28;20111;-65
2023/04/21 02:00:48;;;;;;;22.52;13.38;;;9.10;99.90;;;;;;5086627;28;20098;-64
2023/04/21 02:03:13;;;;;;;22.38;14.45;;;9.10;99.90;;;;;;5071203;28;20028;-64
2023/04/21 02:05:39;;;;;;;20.95;14.63;;;9.10;99.90;;;;;;5073123;28;20045;-64
2023/04/21 02:08:05;;;;;;;22.42;12.60;;;9.10;99.90;;;;;;5074226;28;20055;-64
2023/04/21 02:10:31;;;;;;;22.70;12.13;;;9.10;99.90;;;;;;5074192;28;20486;-64
2023/04/21 02:12:56;;;;;;;21.50;14.25;;;9.10;99.90;;;;;;5074008;28;20037;-64
2023/04/21 02:15:22;;;;;;;25.20;14.20;;;9.10;99.90;;;;;;5073905;28;20072;-65
2023/04/21 02:17:48;;;;;;;21.67;13.80;;;9.20;99.90;;;;;;5073859;28;20087;-65
2023/04/21 02:20:13;;;;;;;20.48;12.65;;;9.10;99.90;;;;;;5074177;28;20080;-65
2023/04/21 02:22:39;;;;;;;22.67;12.68;;;9.10;99.90;;;;;;5074024;28;20044;-64
2023/04/21 02:25:05;;;;;;;19.23;12.02;;;9.10;99.90;;;;;;5074313;28;20048;-64
2023/04/21 02:27:30;;;;;;;22.38;13.18;;;9.20;99.90;;;;;;5074090;28;20067;-65
2023/04/21 02:29:56;;;;;;;20.10;12.70;;;9.20;99.90;;;;;;5073818;28;20486;-65
2023/04/21 02:32:21;;;;;;;18.63;12.32;;;9.20;99.90;;;;;;5073691;28;20041;-64
2023/04/21 02:34:47;;;;;;;22.05;11.38;;;9.30;99.90;;;;;;5074103;28;20036;-64
2023/04/21 02:37:12;;;;;;;18.45;11.73;;;9.30;99.90;;;;;;5073999;28;20039;-64
2023/04/21 02:39:38;;;;;;;20.70;12.48;;;9.30;99.90;;;;;;5073936;28;20048;-64
2023/04/21 02:42:04;;;;;;;22.60;13.15;;;9.30;99.90;;;;;;5071836;28;20050;-65
2023/04/21 02:44:29;;;;;;;17.30;10.32;;;9.30;99.90;;;;;;5073475;28;20043;-64
2023/04/21 02:46:55;;;;;;;16.67;10.40;;;9.30;99.90;;;;;;5073632;28;20106;-65
2023/04/21 02:49:21;;;;;;;22.00;12.25;;;9.30;99.90;;;;;;5073426;28;20395;-65
2023/04/21 02:51:46;;;;;;;19.35;12.13;;;9.30;99.90;;;;;;5073372;28;20068;-64
2023/04/21 02:54:12;;;;;;;20.92;11.85;;;9.30;99.90;;;;;;5073179;28;20406;-65
2023/04/21 02:56:37;;;;;;;20.20;11.43;;;9.30;99.90;;;;;;5073582;28;20048;-65
2023/04/21 02:59:03;;;;;;;17.27;11.88;;;9.30;99.90;;;;;;5072556;28;20044;-65
2023/04/21 03:01:29;;;;;;;16.10;11.13;;;9.30;99.90;;;;;;5073081;28;20044;-65
2023/04/21 03:03:54;;;;;;;22.38;12.95;;;9.30;99.90;;;;;;5073330;28;20036;-65
2023/04/21 03:06:20;;;;;;;22.27;10.98;;;9.30;99.90;;;;;;5073464;28;20047;-65
2023/04/21 03:08:45;;;;;;;18.98;10.55;;;9.30;99.90;;;;;;5073392;28;20425;-65
2023/04/21 03:11:11;;;;;;;18.83;11.73;;;9.30;99.90;;;;;;5072844;28;20032;-65
2023/04/21 03:13:36;;;;;;;18.80;11.50;;;9.20;99.90;;;;;;5072287;28;20044;-65
2023/04/21 03:16:02;;;;;;;23.50;12.43;;;9.30;99.90;;;;;;5072599;28;20039;-65
2023/04/21 03:18:27;;;;;;;22.02;11.95;;;9.20;99.90;;;;;;5072971;28;20040;-64
2023/04/21 03:20:58;;;;;;;18.00;10.95;;;9.20;99.90;;;;;;5072711;28;20090;-65
2023/04/21 03:23:24;;;;;;;19.75;10.38;;;9.30;99.90;;;;;;5072799;28;20068;-65
2023/04/21 03:25:49;;;;;;;21.25;11.52;;;9.20;99.90;;;;;;5073378;28;20044;-65
2023/04/21 03:28:15;;;;;;;20.90;12.18;;;9.20;99.90;;;;;;5072830;28;20106;-65
2023/04/21 03:30:41;;;;;;;18.90;12.00;;;9.20;99.90;;;;;;5071900;28;20084;-65
2023/04/21 03:33:06;;;;;;;18.92;11.43;;;9.20;99.90;;;;;;5072504;28;20131;-65
2023/04/21 03:35:33;;;;;;;21.98;12.27;;;9.20;99.90;;;;;;5072742;28;20086;-65
2023/04/21 03:37:58;;;;;;;17.13;11.27;;;9.20;99.90;;;;;;5072769;28;20036;-65
2023/04/21 03:40:24;;;;;;;19.05;11.00;;;9.20;99.90;;;;;;5072605;28;20036;-65
2023/04/21 03:42:50;;;;;;;18.38;11.88;;;9.20;99.90;;;;;;5072359;28;20041;-64
2023/04/21 03:45:18;;;;;;;21.38;12.50;;;9.20;99.90;;;;;;5072461;28;20497;-64
2023/04/21 03:47:44;;;;;;;23.48;12.77;;;9.20;99.90;;;;;;5072721;28;20044;-65
2023/04/21 03:50:09;;;;;;;23.27;12.75;;;9.10;99.90;;;;;;5072442;28;20040;-65
2023/04/21 03:52:35;;;;;;;20.77;12.10;;;9.20;99.90;;;;;;5072264;28;20044;-64
2023/04/21 03:55:00;;;;;;;19.35;12.93;;;9.20;99.90;;;;;;5072473;28;20041;-65
2023/04/21 03:57:26;;;;;;;29.63;12.13;;;9.10;99.90;;;;;;5071901;28;20035;-65
2023/04/21 03:59:52;;;;;;;19.48;11.98;;;9.10;99.90;;;;;;5071760;28;20126;-65
2023/04/21 04:02:17;;;;;;;20.42;12.80;;;9.20;99.90;;;;;;5054146;28;20040;-65
2023/04/21 04:04:43;;;;;;;20.52;12.95;;;9.20;99.90;;;;;;5059374;28;20461;-66
2023/04/21 04:07:08;;;;;;;21.92;13.30;;;9.20;99.90;;;;;;5051514;28;20562;-65
2023/04/21 04:09:34;;;;;;;19.50;12.75;;;9.20;99.90;;;;;;5051740;28;20047;-65
2023/04/21 04:12:02;;;;;;;23.92;12.45;;;9.10;99.90;;;;;;5051909;28;20433;-65
2023/04/21 04:14:27;;;;;;;22.48;12.90;;;9.10;99.90;;;;;;5051887;28;20474;-65
2023/04/21 04:16:53;;;;;;;19.55;13.18;;;9.10;99.90;;;;;;5052340;28;20119;-65
2023/04/21 04:19:19;;;;;;;20.20;12.98;;;9.10;99.90;;;;;;5052144;28;20037;-65
2023/04/21 04:21:44;;;;;;;23.50;11.93;;;9.00;99.90;;;;;;5051655;28;20068;-65
2023/04/21 04:24:10;;;;;;;18.42;12.40;;;9.00;99.90;;;;;;5051911;28;20040;-65
2023/04/21 04:26:37;;;;;;;22.42;13.25;;;9.00;99.90;;;;;;5051319;28;20063;-65
2023/04/21 04:29:04;;;;;;;21.08;13.10;;;9.00;99.90;;;;;;5051863;28;20044;-65
2023/04/21 04:31:31;;;;;;;19.13;12.70;;;9.00;99.90;;;;;;5051727;28;20090;-65
2023/04/21 04:33:56;;;;;;;19.75;12.52;;;8.90;99.90;;;;;;5051854;28;20037;-65
2023/04/21 04:36:23;;;;;;;22.55;13.05;;;8.90;99.90;;;;;;5051863;28;20044;-65
2023/04/21 04:38:49;;;;;;;25.55;12.38;;;8.90;99.90;;;;;;5051797;28;20041;-66
2023/04/21 04:41:15;;;;;;;18.05;11.82;;;8.80;99.90;;;;;;5051504;28;20102;-65
2023/04/21 04:43:41;;;;;;;19.65;11.32;;;8.80;99.90;;;;;;5050465;28;20478;-65
2023/04/21 04:46:11;;;;;;;20.30;12.80;;;8.80;99.90;;;;;;5052044;28;20041;-65
2023/04/21 04:48:37;;;;;;;19.73;12.45;;;8.80;99.90;;;;;;5051408;28;20084;-65
2023/04/21 04:51:03;;;;;;;19.55;11.30;;;8.80;99.90;;;;;;5051082;28;20134;-65
2023/04/21 04:53:29;;;;;;;20.25;12.70;;;8.80;99.90;;;;;;5050969;28;20506;-65
2023/04/21 04:55:56;;;;;;;19.85;11.73;;;8.80;99.90;;;;;;5051574;28;20037;-65
2023/04/21 04:58:21;;;;;;;18.00;11.88;;;8.80;99.90;;;;;;5051866;28;20116;-65
2023/04/21 05:00:47;;;;;;;18.95;12.38;;;8.90;99.90;;;;;;5051123;28;20116;-65
2023/04/21 05:03:13;;;;;;;24.38;12.98;;;8.90;99.90;;;;;;5051658;28;20033;-65
2023/04/21 05:05:38;;;;;;;17.75;12.07;;;8.90;99.90;;;;;;5051538;28;20124;-65
2023/04/21 05:08:04;;;;;;;20.30;13.40;;;8.90;99.90;;;;;;5051562;28;20120;-65
2023/04/21 05:10:29;;;;;;;17.52;11.80;;;8.90;99.90;;;;;;5051191;28;20479;-65
2023/04/21 05:12:55;;;;;;;18.25;11.63;;;8.90;99.90;;;;;;5051494;28;20498;-65
2023/04/21 05:15:21;;;;;;;21.42;11.70;;;8.90;99.90;;;;;;5051626;28;20082;-65
2023/04/21 05:17:47;;;;;;;16.23;12.00;;;8.90;99.90;;;;;;5051678;28;20037;-65
2023/04/21 05:20:12;;;;;;;21.52;11.77;;;8.90;99.90;;;;;;5051481;28;20041;-65
2023/04/21 05:22:39;;;;;;;19.05;11.85;;;8.90;99.90;;;;;;5051045;28;20036;-65
2023/04/21 05:25:05;;;;;;;19.42;11.63;;;8.80;99.90;;;;;;5051794;28;20136;-65
2023/04/21 05:27:32;;;;;;;20.60;12.65;;;8.90;99.90;;;;;;5051223;28;20483;-65
2023/04/21 05:29:58;;;;;;;18.33;11.10;;;8.90;99.90;;;;;;5051378;28;20099;-65
2023/04/21 05:32:24;;;;;;;20.05;11.95;;;8.90;99.90;;;;;;5051219;28;20640;-65
2023/04/21 05:34:49;;;;;;;19.02;11.43;;;9.00;99.90;;;;;;5051314;28;20033;-65
2023/04/21 05:37:15;;;;;;;18.45;12.02;;;9.00;99.90;;;;;;5051246;28;20179;-65
2023/04/21 05:39:40;;;;;;;18.15;11.30;;;9.00;99.90;;;;;;5054605;28;20486;-65
2023/04/21 05:42:11;;;;;;;19.50;12.13;;;9.10;99.90;;;;;;5054947;28;20037;-65
2023/04/21 05:44:37;;;;;;;23.70;12.70;;;9.10;99.90;;;;;;5055002;28;20052;-65
2023/04/21 05:47:06;;;;;;;20.30;11.93;;;9.20;99.90;;;;;;5055088;28;20120;-65
2023/04/21 05:49:32;;;;;;;17.10;11.90;;;9.20;99.90;;;;;;5054707;28;20511;-65
2023/04/21 05:51:58;;;;;;;16.90;10.93;;;9.30;99.90;;;;;;5054008;28;20037;-65
2023/04/21 05:54:23;;;;;;;18.67;12.02;;;9.30;99.90;;;;;;5054112;28;20037;-65
2023/04/21 05:56:49;;;;;;;22.77;12.18;;;9.30;99.90;;;;;;5054951;28;20091;-65
2023/04/21 05:59:15;;;;;;;21.33;11.43;;;9.40;99.90;;;;;;5055345;28;20037;-64
2023/04/21 06:01:41;;;;;;;19.00;11.63;;;9.40;99.90;;;;;;5054013;28;20037;-64
2023/04/21 06:04:06;;;;;;;22.20;11.63;;;9.40;99.90;;;;;;5054402;28;20490;-65
2023/04/21 06:06:32;;;;;;;18.40;10.77;;;9.50;99.90;;;;;;5054201;28;20045;-65
2023/04/21 06:08:57;;;;;;;16.63;10.48;;;9.60;99.90;;;;;;5053925;28;20406;-66
2023/04/21 06:11:23;;;;;;;20.15;10.60;;;9.60;99.90;;;;;;5054211;28;20406;-65
2023/04/21 06:13:49;;;;;;;19.02;10.13;;;9.70;99.90;;;;;;5054504;28;20479;-65
2023/04/21 06:16:15;;;;;;;17.02;9.98;;;9.70;99.90;;;;;;5054121;28;20043;-65
2023/04/21 06:18:40;;;;;;;14.85;9.40;;;9.70;99.90;;;;;;5053935;28;20029;-65
2023/04/21 06:21:06;;;;;;;18.42;11.35;;;9.80;99.90;;;;;;5053552;28;20037;-65
2023/04/21 06:23:31;;;;;;;16.00;9.73;;;9.80;99.90;;;;;;5054112;28;20041;-65
2023/04/21 06:26:05;;;;;;;18.95;10.95;;;9.90;99.90;;;;;;5054102;28;20490;-65
2023/04/21 06:28:35;;;;;;;16.42;10.55;;;10.00;99.90;;;;;;5054195;28;20167;-65
2023/04/21 06:31:02;;;;;;;16.90;10.13;;;10.10;99.90;;;;;;5053432;28;20048;-65
2023/04/21 06:33:28;;;;;;;18.55;10.68;;;10.20;99.90;;;;;;5054107;28;20033;-65
2023/04/21 06:35:54;;;;;;;15.52;8.82;;;10.30;99.90;;;;;;5053304;28;20120;-65
2023/04/21 06:38:20;;;;;;;17.40;10.88;;;10.40;99.90;;;;;;5053968;28;20116;-65
2023/04/21 06:40:46;;;;;;;19.83;11.15;;;10.50;99.90;;;;;;5053592;28;20048;-65
2023/04/21 06:43:12;;;;;;;20.52;10.82;;;10.70;99.90;;;;;;5053917;28;20033;-65
2023/04/21 06:45:37;;;;;;;19.90;11.48;;;10.70;99.90;;;;;;5053155;28;20037;-65
2023/04/21 06:48:03;;;;;;;16.88;10.73;;;10.70;99.90;;;;;;5053715;28;20124;-65
2023/04/21 06:50:29;;;;;;;15.80;10.95;;;10.70;99.90;;;;;;5052622;28;20037;-65
2023/04/21 06:52:54;;;;;;;16.80;10.20;;;10.70;99.90;;;;;;5053090;28;20041;-65
2023/04/21 06:55:20;;;;;;;21.48;10.93;;;10.80;99.90;;;;;;5053475;28;20041;-65
2023/04/21 06:57:45;;;;;;;18.65;9.75;;;10.80;99.90;;;;;;5053747;28;20041;-65
2023/04/21 07:00:12;;;;;;;17.13;10.55;;;10.90;99.90;;;;;;5053539;28;20041;-65
2023/04/21 07:02:38;;;;;;;19.45;11.35;;;10.90;99.90;;;;;;5052741;28;20037;-65
2023/04/21 07:05:03;;;;;;;19.33;10.95;;;11.00;99.90;;;;;;5053202;28;20044;-65
2023/04/21 07:07:29;;;;;;;20.27;10.65;;;11.00;99.90;;;;;;5053256;28;20045;-65
2023/04/21 07:09:55;;;;;;;20.98;10.65;;;11.10;99.90;;;;;;5053033;28;20041;-66
2023/04/21 07:12:20;;;;;;;16.63;11.05;;;11.10;99.90;;;;;;5052759;28;20037;-66
2023/04/21 07:14:46;;;;;;;20.52;10.90;;;11.10;99.90;;;;;;5053249;28;20107;-66
2023/04/21 07:17:11;;;;;;;20.33;11.35;;;11.10;99.90;;;;;;5053176;28;20069;-66
2023/04/21 07:19:38;;;;;;;15.63;10.52;;;11.20;99.90;;;;;;5053033;28;20037;-66
2023/04/21 07:22:03;;;;;;;20.02;11.77;;;11.20;99.90;;;;;;5052724;28;20056;-66
2023/04/21 07:24:29;;;;;;;16.95;11.07;;;11.30;99.90;;;;;;5053131;28;20041;-66
2023/04/21 07:26:55;;;;;;;22.65;10.60;;;11.30;99.90;;;;;;5053066;28;20443;-66
2023/04/21 07:29:20;;;;;;;19.67;10.40;;;11.40;99.90;;;;;;5052899;28;20577;-66
2023/04/21 07:31:47;;;;;;;15.75;10.25;;;11.40;99.90;;;;;;5051307;28;20041;-66
2023/04/21 07:34:13;;;;;;;18.88;10.27;;;11.50;99.90;;;;;;5051349;28;20411;-66
2023/04/21 07:36:38;;;;;;;18.67;10.82;;;11.50;99.90;;;;;;5052994;28;20048;-66
2023/04/21 07:39:04;;;;;;;19.45;11.10;;;11.50;99.90;;;;;;5052778;28;20040;-66
2023/04/21 07:41:29;;;;;;;17.60;11.13;;;11.50;99.90;;;;;;5052507;28;20090;-66
2023/04/21 07:43:55;;;;;;;26.05;11.82;;;11.60;99.90;;;;;;5052512;28;20052;-66
2023/04/21 07:46:23;;;;;;;21.00;11.45;;;11.70;99.90;;;;;;5052457;28;20045;-66
2023/04/21 07:48:48;;;;;;;21.70;11.27;;;11.70;99.90;;;;;;5052541;28;20044;-66
2023/04/21 07:51:16;;;;;;;19.20;9.93;;;11.80;99.90;;;;;;5051971;28;20044;-66
2023/04/21 07:53:42;;;;;;;16.95;11.23;;;11.90;99.90;;;;;;5072019;22;20098;-64
2023/04/21 07:56:08;;;;;;;20.00;11.63;;;12.00;99.90;;;;;;5079066;28;20394;-65
2023/04/21 07:58:33;;;;;;;19.30;11.10;;;12.00;99.90;;;;;;5083766;28;20077;-65
2023/04/21 08:00:59;;;;;;;19.33;11.55;;;12.00;99.90;;;;;;5091998;28;20079;-65
2023/04/21 08:03:25;;;;;;;19.67;11.95;;;12.10;99.90;;;;;;5092361;28;20050;-65
2023/04/21 08:05:50;;;;;;;16.55;10.80;;;12.20;99.90;;;;;;5092658;28;20101;-66
2023/04/21 08:08:19;;;;;;;18.30;11.13;;;12.20;99.90;;;;;;5092657;28;20051;-65
2023/04/21 08:10:45;;;;;;;16.27;10.63;;;12.30;99.90;;;;;;5092221;28;20079;-66
2023/04/21 08:13:10;;;;;;;19.35;10.60;;;12.30;99.90;;;;;;5092354;28;20043;-65
2023/04/21 08:15:36;;;;;;;20.55;11.43;;;12.40;99.90;;;;;;5092314;28;20032;-65
2023/04/21 08:18:01;;;;;;;16.15;10.65;;;12.50;99.90;;;;;;5092239;28;20039;-66
2023/04/21 08:20:27;;;;;;;22.38;11.18;;;12.50;99.90;;;;;;5092446;28;20040;-66
2023/04/21 08:22:53;;;;;;;17.25;10.75;;;12.60;99.90;;;;;;5073725;28;20504;-65
2023/04/21 08:25:18;;;;;;;15.55;10.35;;;12.70;99.90;;;;;;5091865;28;20115;-66
2023/04/21 08:27:44;;;;;;;18.63;11.43;;;12.70;99.90;;;;;;5091965;28;20043;-66
2023/04/21 08:30:10;;;;;;;17.77;10.00;;;12.90;99.90;;;;;;5073987;28;20043;-66
2023/04/21 08:32:36;;;;;;;18.00;10.35;;;13.00;99.90;;;;;;5091346;28;20118;-65
2023/04/21 08:35:01;;;;;;;17.73;11.40;;;13.10;99.90;;;;;;5092232;28;20111;-66
2023/04/21 08:37:28;;;;;;;21.75;11.93;;;13.20;99.90;;;;;;5091881;28;20393;-66
2023/04/21 08:39:53;;;;;;;16.55;9.73;;;13.20;99.90;;;;;;5092203;28;20047;-66
2023/04/21 08:42:19;;;;;;;18.40;11.13;;;13.30;99.90;;;;;;5090992;28;20039;-66
2023/04/21 08:44:46;;;;;;;18.08;11.30;;;13.40;99.90;;;;;;5091867;28;20485;-66
2023/04/21 08:47:13;;;;;;;16.58;10.00;;;13.50;99.90;;;;;;5091841;28;20036;-65
2023/04/21 08:49:41;;;;;;;17.77;10.27;;;13.60;99.90;;;;;;5091612;28;20044;-66
2023/04/21 08:52:07;;;;;;;17.55;10.93;;;13.70;99.90;;;;;;5073513;28;20040;-66
2023/04/21 08:54:35;;;;;;;19.45;10.43;;;13.90;99.90;;;;;;5091637;28;20028;-66
2023/04/21 08:57:02;;;;;;;14.93;10.40;;;14.20;99.90;;;;;;5091519;28;20036;-66
2023/04/21 08:59:28;;;;;;;18.63;10.80;;;14.40;99.90;;;;;;5091869;28;20035;-66
2023/04/21 09:02:07;;;;;;;19.27;11.05;;;14.50;99.90;;;;;;5091149;28;20036;-66
2023/04/21 09:04:33;;;;;;;22.98;10.45;;;14.50;99.90;;;;;;5091803;28;20040;-66
2023/04/21 09:06:58;;;;;;;18.13;11.27;;;14.50;99.90;;;;;;5091009;28;20101;-66
2023/04/21 09:09:24;;;;;;;17.73;11.18;;;14.50;99.90;;;;;;5091753;28;20036;-66
2023/04/21 09:12:00;;;;;;;15.85;10.70;;;14.40;99.90;;;;;;5091459;28;20141;-66
2023/04/21 09:14:33;;;;;;;18.00;11.95;;;14.50;99.90;;;;;;5078757;28;20045;-66
2023/04/21 09:17:01;;;;;;;20.30;12.35;;;14.60;99.90;;;;;;5075260;28;20036;-66
2023/04/21 09:19:28;;;;;;;17.38;11.43;;;14.70;99.90;;;;;;5075606;28;20044;-66
2023/04/21 09:21:53;;;;;;;16.23;9.88;;;14.80;99.90;;;;;;5074470;28;20036;-66
2023/04/21 09:24:19;;;;;;;23.60;11.23;;;14.80;99.90;;;;;;5075213;28;20033;-66
2023/04/21 09:26:50;;;;;;;20.23;11.32;;;14.90;99.90;;;;;;5075152;28;20036;-66
2023/04/21 09:29:16;;;;;;;17.20;11.23;;;14.80;99.90;;;;;;5075446;28;20032;-66
2023/04/21 09:31:43;;;;;;;18.15;10.80;;;14.90;99.90;;;;;;5074904;28;20044;-66
2023/04/21 09:34:25;;;;;;;20.27;11.90;;;15.00;99.90;;;;;;5074891;28;20543;-66
2023/04/21 09:37:02;;;;;;;20.80;12.07;;;15.20;99.90;;;;;;5075070;28;20032;-66
2023/04/21 09:39:33;;;;;;;17.60;11.27;;;15.60;99.90;;;;;;5074893;28;20040;-66
2023/04/21 09:42:00;;;;;;;21.55;11.48;;;15.90;99.90;;;;;;5074866;28;20036;-66
2023/04/21 09:44:26;;;;;;;20.00;11.35;;;16.20;99.90;;;;;;5074904;28;20052;-66
2023/04/21 09:47:02;;;;;;;18.08;11.35;;;16.40;99.90;;;;;;5074934;28;20040;-66
2023/04/21 09:49:30;;;;;;;20.77;10.90;;;16.50;99.90;;;;;;5074398;28;20089;-66
2023/04/21 09:52:00;;;;;;;17.75;10.88;;;16.50;99.90;;;;;;5074354;28;20119;-66
2023/04/21 09:54:30;;;;;;;20.83;10.88;;;16.40;99.90;;;;;;5074351;28;20350;-66
2023/04/21 09:56:58;;;;;;;16.37;10.70;;;16.30;99.90;;;;;;5074318;28;20037;-66
2023/04/21 09:59:28;;;;;;;20.02;11.95;;;16.20;99.90;;;;;;5074554;28;20115;-66
2023/04/21 10:01:56;;;;;;;20.35;11.85;;;16.30;99.90;;;;;;5074234;28;20494;-66
2023/04/21 10:04:23;;;;;;;19.42;11.77;;;16.40;99.90;;;;;;5074348;28;20093;-67
2023/04/21 10:06:50;;;;;;;17.83;11.40;;;16.60;99.90;;;;;;5074464;28;20495;-67
2023/04/21 10:09:20;;;;;;;19.45;11.88;;;16.80;99.90;;;;;;5074579;28;20045;-67
2023/04/21 10:11:45;;;;;;;17.75;11.73;;;17.00;99.90;;;;;;5074170;28;20048;-67
2023/04/21 10:14:11;;;;;;;17.20;12.05;;;17.20;99.90;;;;;;5074240;28;20093;-67
2023/04/21 10:16:37;;;;;;;18.20;10.60;;;17.30;99.90;;;;;;5074255;28;20083;-67
2023/04/21 10:19:25;;;;;;;20.73;11.25;;;17.60;99.90;;;;;;5074602;28;20036;-67
2023/04/21 10:21:51;;;;;;;18.90;12.13;;;17.70;99.90;;;;;;5074205;28;20120;-66
2023/04/21 10:24:16;;;;;;;19.10;11.90;;;17.80;99.90;;;;;;5055219;28;20076;-66
2023/04/21 10:26:42;;;;;;;17.85;11.52;;;17.80;99.90;;;;;;5074143;28;20040;-66
2023/04/21 10:29:10;;;;;;;20.02;11.05;;;17.70;99.90;;;;;;5074021;28;20040;-66
2023/04/21 10:31:43;;;;;;;17.35;10.70;;;17.70;99.90;;;;;;5055828;28;20131;-66
2023/04/21 10:34:08;;;;;;;18.30;10.75;;;17.50;99.90;;;;;;5074046;28;20040;-66
2023/04/21 10:36:50;;;;;;;17.10;12.10;;;17.40;99.90;;;;;;5074194;28;20588;-66
2023/04/21 10:39:38;;;;;;;19.13;12.02;;;17.50;99.90;;;;;;5074017;28;20041;-66
2023/04/21 10:42:23;;;;;;;17.80;11.35;;;17.70;99.90;;;;;;5073882;28;20044;-66
2023/04/21 10:44:56;;;;;;;21.20;11.23;;;17.60;99.90;;;;;;5073771;28;20379;-67
2023/04/21 10:47:26;;;;;;;17.63;11.77;;;17.40;99.90;;;;;;5073694;28;20502;-66
2023/04/21 10:49:51;;;;;;;17.25;11.35;;;17.20;99.90;;;;;;5073778;28;20040;-66
2023/04/21 10:52:19;;;;;;;17.45;11.82;;;17.00;99.90;;;;;;5073351;28;20090;-66
2023/04/21 10:54:45;;;;;;;18.40;11.10;;;17.00;99.90;;;;;;5073118;28;20440;-66
2023/04/21 10:57:18;;;;;;;19.30;11.65;;;17.10;99.90;;;;;;5073796;28;20033;-66
2023/04/21 10:59:44;;;;;;;19.65;11.32;;;17.40;99.90;;;;;;5073459;28;20041;-66
2023/04/21 11:02:12;;;;;;;18.95;11.00;;;17.80;99.90;;;;;;5055034;28;20048;-66
2023/04/21 11:04:40;;;;;;;15.52;11.27;;;18.10;99.90;;;;;;5072857;28;20375;-66
2023/04/21 11:07:15;;;;;;;19.40;11.65;;;18.40;99.90;;;;;;5073605;28;20115;-66
2023/04/21 11:09:42;;;;;;;18.27;10.88;;;18.50;99.90;;;;;;5073477;28;20103;-66
2023/04/21 11:12:13;;;;;;;18.08;11.02;;;18.40;99.90;;;;;;5054916;28;20510;-66
2023/04/21 11:14:40;;;;;;;16.05;10.65;;;18.20;99.90;;;;;;5073294;28;20090;-66
2023/04/21 11:17:14;;;;;;;15.07;9.63;;;18.20;99.90;;;;;;5073552;28;20119;-66
2023/04/21 11:19:43;;;;;;;15.73;9.65;;;18.30;99.90;;;;;;5072972;28;20037;-67
2023/04/21 11:22:09;;;;;;;13.25;9.40;;;18.50;99.90;;;;;;5073004;28;20072;-66
2023/04/21 11:24:35;;;;;;;18.42;9.88;;;18.70;99.90;;;;;;5072527;28;20121;-66
2023/04/21 11:27:01;;;;;;;14.27;9.35;;;18.80;99.90;;;;;;5072595;28;20094;-66
2023/04/21 11:29:30;;;;;;;12.65;8.80;;;18.90;99.40;;;;;;5072497;28;20033;-66
2023/04/21 11:31:57;;;;;;;15.98;8.98;;;18.90;98.90;;;;;;5072618;28;20519;-65
2023/04/21 11:34:25;;;;;;;16.88;10.48;;;18.80;98.10;;;;;;5072809;28;20112;-65
2023/04/21 11:36:52;;;;;;;16.95;8.82;;;18.60;97.00;;;;;;5072218;28;20056;-65
2023/04/21 11:39:21;;;;;;;16.27;9.00;;;18.60;98.00;;;;;;5072542;28;20390;-65
2023/04/21 11:41:48;;;;;;;14.73;9.27;;;18.60;98.50;;;;;;5072520;28;20398;-65
2023/04/21 11:44:30;;;;;;;13.45;8.88;;;18.80;99.10;;;;;;5072302;28;20072;-65
2023/04/21 11:46:56;;;;;;;12.70;8.50;;;18.90;96.50;;;;;;5072904;28;20075;-65
2023/04/21 11:49:25;;;;;;;13.30;8.55;;;19.00;97.30;;;;;;5054603;28;20087;-65
2023/04/21 11:51:50;;;;;;;15.93;9.13;;;19.20;97.50;;;;;;5072194;28;20063;-65
2023/04/21 11:54:17;;;;;;;16.42;9.55;;;19.30;96.10;;;;;;5072128;28;20698;-65
2023/04/21 11:56:46;;;;;;;11.95;8.73;;;19.40;94.90;;;;;;5072342;28;20063;-65
2023/04/21 11:59:14;;;;;;;11.55;7.57;;;19.50;93.30;;;;;;5072636;28;20033;-65
2023/04/21 12:01:48;;;;;;;10.93;6.93;;;19.60;91.20;;;;;;5071908;28;20036;-66
2023/04/21 12:04:16;;;;;;;13.10;7.35;;;19.70;89.10;;;;;;5053990;28;20052;-65
2023/04/21 12:06:42;;;;;;;11.60;7.95;;;19.60;90.50;;;;;;5072387;28;20052;-66
2023/04/21 12:09:07;;;;;;;10.65;7.90;;;19.40;90.90;;;;;;5071669;28;20450;-66
2023/04/21 12:11:33;;;;;;;13.18;7.90;;;19.20;90.70;;;;;;5072075;28;20119;-66
2023/04/21 12:14:00;;;;;;;13.75;7.65;;;19.00;90.80;;;;;;5071808;28;20033;-65
2023/04/21 12:16:27;;;;;;;17.40;7.72;;;18.90;91.60;;;;;;5072287;28;20075;-66
2023/04/21 12:18:54;;;;;;;11.00;6.88;;;18.90;91.70;;;;;;5072193;28;20052;-66
2023/04/21 12:21:20;;;;;;;10.75;7.15;;;18.90;90.30;;;;;;5071889;28;20186;-66
2023/04/21 12:23:45;;;;;;;14.75;7.75;;;18.80;88.80;;;;;;5071888;28;20520;-66
2023/04/21 12:26:11;;;;;;;12.70;7.40;;;18.80;90.20;;;;;;5072108;28;20368;-66
2023/04/21 12:28:37;;;;;;;10.27;7.03;;;18.70;90.00;;;;;;5072131;28;20130;-66
2023/04/21 12:31:04;;;;;;;14.13;7.80;;;18.60;90.00;;;;;;5071805;28;20041;-65